createdAt,value
2022-08-19T00:01:28.726Z,18
2022-08-19T00:03:22.758Z,19
2022-08-19T00:05:22.762Z,19.7
2022-08-19T00:07:22.762Z,20.3
2022-08-19T00:09:22.768Z,20.5
2022-08-19T00:11:25.898Z,20.3
2022-08-19T00:13:22.777Z,17.8
2022-08-19T00:15:22.781Z,18.5
2022-08-19T00:17:22.790Z,19
2022-08-19T00:19:22.784Z,20.2
2022-08-19T00:21:22.799Z,19.5
2022-08-19T00:23:22.800Z,20.7
2022-08-19T00:25:29.994Z,18.1
2022-08-19T00:27:25.476Z,19
2022-08-19T00:29:22.824Z,19
2022-08-19T00:31:22.834Z,18.2
2022-08-19T00:33:22.832Z,18.5
2022-08-19T00:35:22.836Z,18.3
2022-08-19T00:37:22.832Z,17.4
2022-08-19T00:39:22.862Z,18.3
2022-08-19T00:41:22.847Z,16.8
2022-08-19T00:43:22.859Z,17.8
2022-08-19T00:45:22.865Z,20
2022-08-19T00:47:22.868Z,18.5
2022-08-19T00:49:22.882Z,18.4
2022-08-19T00:51:22.878Z,17.7
2022-08-19T00:53:22.888Z,18.5
2022-08-19T00:55:22.895Z,18.8
2022-08-19T00:57:22.899Z,19.1
2022-08-19T00:59:53.770Z,18.5
2022-08-19T01:01:22.950Z,15.9
2022-08-19T01:03:22.918Z,19.2
2022-08-19T01:05:22.918Z,19.2
2022-08-19T01:07:22.927Z,17.6
2022-08-19T01:09:22.946Z,17.4
2022-08-19T01:11:22.930Z,16.6
2022-08-19T01:13:22.935Z,19
2022-08-19T01:15:22.943Z,18.6
2022-08-19T01:17:22.945Z,19.4
2022-08-19T01:19:22.955Z,17.5
2022-08-19T01:21:22.963Z,15.9
2022-08-19T01:23:22.963Z,16.8
2022-08-19T01:25:22.962Z,16.9
2022-08-19T01:27:22.971Z,19.5
2022-08-19T01:29:22.991Z,16.9
2022-08-19T01:31:26.673Z,16.5
2022-08-19T01:33:22.991Z,19
2022-08-19T01:35:22.996Z,17.8
2022-08-19T01:37:24.827Z,17.9
2022-08-19T01:39:23.023Z,17.6
2022-08-19T01:41:23.015Z,17.7
2022-08-19T01:43:23.020Z,16.7
2022-08-19T01:45:23.020Z,16.3
2022-08-19T01:47:23.036Z,18.3
2022-08-19T01:49:23.041Z,16.7
2022-08-19T01:51:23.037Z,19.1
2022-08-19T01:53:23.042Z,16.6
2022-08-19T01:55:23.048Z,16.9
2022-08-19T01:57:23.058Z,17.4
2022-08-19T01:59:23.070Z,19.4
2022-08-19T02:01:23.101Z,19.5
2022-08-19T02:03:23.078Z,17
2022-08-19T02:05:23.075Z,19.2
2022-08-19T02:07:23.076Z,18.1
2022-08-19T02:09:23.090Z,18.7
2022-08-19T02:11:23.086Z,17.9
2022-08-19T02:13:24.276Z,18.6
2022-08-19T02:15:23.095Z,15.1
2022-08-19T02:17:23.094Z,18.3
2022-08-19T02:19:23.109Z,17.8
2022-08-19T02:21:23.102Z,18.8
2022-08-19T02:23:23.107Z,17.2
2022-08-19T02:25:23.112Z,17.5
2022-08-19T02:27:23.111Z,17.3
2022-08-19T02:29:23.144Z,17.9
2022-08-19T02:31:23.127Z,18.7
2022-08-19T02:33:23.121Z,17.2
2022-08-19T02:35:23.130Z,18
2022-08-19T02:37:23.127Z,17.7
2022-08-19T02:39:23.141Z,17.1
2022-08-19T02:41:23.140Z,16.6
2022-08-19T02:43:23.138Z,19.9
2022-08-19T02:45:23.138Z,17.8
2022-08-19T02:47:23.129Z,21.7
2022-08-19T02:49:23.142Z,17.8
2022-08-19T02:51:23.137Z,21.4
2022-08-19T02:53:23.144Z,16.9
2022-08-19T02:55:23.143Z,17.2
2022-08-19T02:57:23.148Z,18.4
2022-08-19T02:59:23.258Z,18.9
2022-08-19T03:01:23.227Z,18.5
2022-08-19T03:03:23.151Z,18.5
2022-08-19T03:05:28.369Z,16.3
2022-08-19T03:07:23.152Z,18.1
2022-08-19T03:09:23.173Z,15.5
2022-08-19T03:11:23.156Z,19.3
2022-08-19T03:13:23.164Z,17.4
2022-08-19T03:15:23.168Z,18.2
2022-08-19T03:17:23.191Z,17
2022-08-19T03:19:23.193Z,18.4
2022-08-19T03:21:23.203Z,16.6
2022-08-19T03:23:23.213Z,15
2022-08-19T03:25:23.213Z,19.3
2022-08-19T03:27:23.222Z,18.2
2022-08-19T03:29:30.507Z,18.3
2022-08-19T03:31:42.367Z,19.3
2022-08-19T03:33:26.468Z,17
2022-08-19T03:35:23.249Z,16.8
2022-08-19T03:37:23.259Z,19.3
2022-08-19T03:39:23.273Z,17.5
2022-08-19T03:41:23.274Z,18
2022-08-19T03:43:23.276Z,17.9
2022-08-19T03:45:23.282Z,18.1
2022-08-19T03:47:23.283Z,18.3
2022-08-19T03:49:26.484Z,18.1
2022-08-19T03:51:30.564Z,17.7
2022-08-19T03:53:23.309Z,18
2022-08-19T03:55:23.313Z,18.5
2022-08-19T03:57:23.823Z,16.2
2022-08-19T03:59:23.340Z,17.6
2022-08-19T04:01:23.386Z,17.9
2022-08-19T04:03:23.347Z,18
2022-08-19T04:05:27.573Z,18.2
2022-08-19T04:07:23.366Z,18
2022-08-19T04:09:23.387Z,16.7
2022-08-19T04:11:23.372Z,15.7
2022-08-19T04:13:23.383Z,16.1
2022-08-19T04:15:23.386Z,17.8
2022-08-19T04:17:23.401Z,17.7
2022-08-19T04:19:23.410Z,14.4
2022-08-19T04:21:23.413Z,17.1
2022-08-19T04:23:23.421Z,16.8
2022-08-19T04:25:23.429Z,16.1
2022-08-19T04:27:23.439Z,19.1
2022-08-19T04:29:23.456Z,15.1
2022-08-19T04:31:23.549Z,17
2022-08-19T04:33:25.755Z,14
2022-08-19T04:35:24.983Z,16
2022-08-19T04:37:23.464Z,16.4
2022-08-19T04:39:23.483Z,15.8
2022-08-19T04:41:23.483Z,16.4
2022-08-19T04:43:23.488Z,15.7
2022-08-19T04:45:23.523Z,16.1
2022-08-19T04:47:46.782Z,15
2022-08-19T04:49:23.574Z,15.2
2022-08-19T04:51:23.526Z,14.7
2022-08-19T04:53:23.536Z,15.5
2022-08-19T04:55:23.541Z,13.7
2022-08-19T04:57:23.553Z,16.3
2022-08-19T04:59:23.572Z,16.1
2022-08-19T05:01:23.609Z,16.3
2022-08-19T05:03:25.584Z,15.9
2022-08-19T05:05:23.580Z,13
2022-08-19T05:07:23.593Z,14.2
2022-08-19T05:09:23.613Z,14.1
2022-08-19T05:11:26.515Z,13.3
2022-08-19T05:13:23.616Z,13.6
2022-08-19T05:15:23.621Z,13.7
2022-08-19T05:17:27.446Z,13.9
2022-08-19T05:19:23.653Z,13.3
2022-08-19T05:21:23.641Z,14.7
2022-08-19T05:23:23.650Z,13.6
2022-08-19T05:25:23.663Z,13.8
2022-08-19T05:27:23.679Z,13.8
2022-08-19T05:29:23.687Z,12.8
2022-08-19T05:31:23.686Z,14.6
2022-08-19T05:33:23.678Z,12.9
2022-08-19T05:35:23.690Z,13.6
2022-08-19T05:37:23.696Z,14.9
2022-08-19T05:39:23.717Z,14.6
2022-08-19T05:41:23.722Z,15.2
2022-08-19T05:43:23.732Z,15.7
2022-08-19T05:45:23.737Z,13.8
2022-08-19T05:47:23.839Z,13.8
2022-08-19T05:49:23.776Z,14
2022-08-19T05:51:26.212Z,12.1
2022-08-19T05:53:23.779Z,12.1
2022-08-19T05:55:23.796Z,12.4
2022-08-19T05:57:23.801Z,12.8
2022-08-19T05:59:24.816Z,11.7
2022-08-19T06:01:23.829Z,13.8
2022-08-19T06:03:23.826Z,15.5
2022-08-19T06:05:23.838Z,11.1
2022-08-19T06:07:23.885Z,11.7
2022-08-19T06:09:23.863Z,14.1
2022-08-19T06:11:23.859Z,13.9
2022-08-19T06:13:23.859Z,15.1
2022-08-19T06:15:23.873Z,12.8
2022-08-19T06:17:23.883Z,15.1
2022-08-19T06:19:23.905Z,14.4
2022-08-19T06:21:23.891Z,16.6
2022-08-19T06:23:24.349Z,15.6
2022-08-19T06:25:26.840Z,13.2
2022-08-19T06:27:23.916Z,13.5
2022-08-19T06:29:24.231Z,13.3
2022-08-19T06:31:23.944Z,13.3
2022-08-19T06:33:23.943Z,14.4
2022-08-19T06:35:23.958Z,14.9
2022-08-19T06:37:23.969Z,15.2
2022-08-19T06:39:23.988Z,14.7
2022-08-19T06:41:23.982Z,15.2
2022-08-19T06:43:23.997Z,15
2022-08-19T06:45:24.420Z,14.6
2022-08-19T06:47:25.129Z,13.6
2022-08-19T06:49:24.043Z,15.2
2022-08-19T06:51:24.066Z,14.5
2022-08-19T06:53:24.047Z,14.5
2022-08-19T06:55:24.186Z,15.6
2022-08-19T06:57:24.084Z,17
2022-08-19T06:59:24.098Z,13.8
2022-08-19T07:01:24.113Z,13.4
2022-08-19T07:03:24.110Z,14.1
2022-08-19T07:05:24.116Z,17
2022-08-19T07:07:24.114Z,15.2
2022-08-19T07:09:24.139Z,15.7
2022-08-19T07:11:24.137Z,16.7
2022-08-19T07:13:24.148Z,14.8
2022-08-19T07:15:24.153Z,15.4
2022-08-19T07:17:24.168Z,16.3
2022-08-19T07:19:24.178Z,15.3
2022-08-19T07:21:24.179Z,14
2022-08-19T07:23:24.202Z,15.3
2022-08-19T07:25:31.812Z,14.2
2022-08-19T07:27:25.256Z,16.7
2022-08-19T07:29:25.705Z,15.8
2022-08-19T07:31:24.255Z,15.4
2022-08-19T07:33:24.244Z,15.8
2022-08-19T07:35:24.256Z,14.6
2022-08-19T07:37:24.268Z,16.1
2022-08-19T07:39:24.287Z,14.4
2022-08-19T07:41:24.290Z,14.3
2022-08-19T07:43:24.299Z,13.9
2022-08-19T07:45:24.310Z,13.5
2022-08-19T07:47:48.626Z,14.4
2022-08-19T07:49:24.348Z,13.5
2022-08-19T07:51:36.247Z,12.7
2022-08-19T07:53:24.365Z,13.8
2022-08-19T07:55:40.853Z,13
2022-08-19T07:57:24.379Z,14.4
2022-08-19T07:59:24.403Z,13.3
2022-08-19T08:01:24.427Z,12
2022-08-19T08:03:24.407Z,13.8
2022-08-19T08:05:24.404Z,13.7
2022-08-19T08:07:24.404Z,13.2
2022-08-19T08:09:24.429Z,13.5
2022-08-19T08:11:24.434Z,13.8
2022-08-19T08:13:24.436Z,13.9
2022-08-19T08:15:25.041Z,14.3
2022-08-19T08:17:30.933Z,14.8
2022-08-19T08:19:25.560Z,12.8
2022-08-19T08:21:24.489Z,14
2022-08-19T08:23:24.500Z,12.2
2022-08-19T08:25:24.515Z,12.7
2022-08-19T08:27:26.429Z,13.3
2022-08-19T08:29:24.555Z,13.4
2022-08-19T08:31:24.570Z,14.1
2022-08-19T08:33:30.338Z,13.7
2022-08-19T08:35:24.580Z,12.6
2022-08-19T08:37:24.592Z,11.7
2022-08-19T08:39:24.627Z,12.5
2022-08-19T08:41:24.619Z,14.3
2022-08-19T08:43:24.627Z,12.7
2022-08-19T08:45:24.650Z,11.8
2022-08-19T08:47:24.658Z,11
2022-08-19T08:49:24.683Z,12.3
2022-08-19T08:51:24.840Z,12.1
2022-08-19T08:53:26.353Z,12.7
2022-08-19T08:55:24.700Z,11.8
2022-08-19T08:57:24.692Z,12.2
2022-08-19T08:59:24.709Z,12
2022-08-19T09:01:24.759Z,11.6
2022-08-19T09:03:24.723Z,13
2022-08-19T09:05:25.981Z,12
2022-08-19T09:07:27.144Z,11.3
2022-08-19T09:09:24.779Z,12.1
2022-08-19T09:11:42.325Z,11.5
2022-08-19T09:13:24.793Z,11.1
2022-08-19T09:15:27.827Z,10.5
2022-08-19T09:17:24.817Z,11.3
2022-08-19T09:19:24.842Z,12
2022-08-19T09:21:26.056Z,11.1
2022-08-19T09:23:26.604Z,10.7
2022-08-19T09:25:27.210Z,10
2022-08-19T09:27:35.511Z,11.4
2022-08-19T09:29:24.907Z,11
2022-08-19T09:31:24.934Z,11.8
2022-08-19T09:33:24.924Z,12.1
2022-08-19T09:35:24.941Z,11.1
2022-08-19T09:37:24.956Z,11
2022-08-19T09:39:24.979Z,11.3
2022-08-19T09:41:24.982Z,13.3
2022-08-19T09:43:31.091Z,11.3
2022-08-19T09:45:25.010Z,11.4
2022-08-19T09:47:25.025Z,11.7
2022-08-19T09:49:25.040Z,10.8
2022-08-19T09:51:25.033Z,11.4
2022-08-19T09:53:25.307Z,14.3
2022-08-19T09:55:25.055Z,10.5
2022-08-19T09:57:25.062Z,11.2
2022-08-19T09:59:25.096Z,10.5
2022-08-19T10:01:25.161Z,12.6
2022-08-19T10:03:25.491Z,11
2022-08-19T10:05:26.901Z,9.8
2022-08-19T10:07:28.771Z,9.8
2022-08-19T10:09:26.567Z,9.1
2022-08-19T10:11:27.117Z,10.1
2022-08-19T10:13:25.176Z,10.8
2022-08-19T10:15:28.745Z,10.7
2022-08-19T10:17:26.865Z,8.7
2022-08-19T10:19:26.196Z,10.1
2022-08-19T10:21:25.511Z,10.2
2022-08-19T10:23:25.249Z,9.4
2022-08-19T10:25:25.288Z,10.4
2022-08-19T10:27:26.240Z,9.3
2022-08-19T10:29:31.736Z,8.8
2022-08-19T10:31:58.866Z,9.7
2022-08-19T10:33:38.024Z,9.7
2022-08-19T10:35:25.327Z,8.7
2022-08-19T10:37:29.263Z,10.3
2022-08-19T10:39:25.371Z,8.8
2022-08-19T10:41:25.346Z,9
2022-08-19T10:43:25.352Z,8.6
2022-08-19T10:45:25.363Z,9.1
2022-08-19T10:47:25.961Z,8.5
2022-08-19T10:49:25.384Z,9.2
2022-08-19T10:51:25.384Z,10.2
2022-08-19T10:53:25.403Z,8.7
2022-08-19T10:55:25.408Z,11.2
2022-08-19T10:57:27.885Z,9.7
2022-08-19T10:59:26.717Z,9.8
2022-08-19T11:01:25.504Z,10.4
2022-08-19T11:03:25.438Z,11.5
2022-08-19T11:05:25.444Z,9
2022-08-19T11:07:25.454Z,13.8
2022-08-19T11:09:30.509Z,12.7
2022-08-19T11:11:25.466Z,9.5
2022-08-19T11:13:25.472Z,11.7
2022-08-19T11:15:25.479Z,11.7
2022-08-19T11:17:25.489Z,12.3
2022-08-19T11:19:25.513Z,18.1
2022-08-19T11:21:25.514Z,8.3
2022-08-19T11:23:25.515Z,25.7
2022-08-19T11:25:25.524Z,9.4
2022-08-19T11:27:25.533Z,8.5
2022-08-19T11:29:25.557Z,16
2022-08-19T11:31:28.790Z,10.1
2022-08-19T11:33:25.559Z,9.5
2022-08-19T11:35:25.555Z,8.4
2022-08-19T11:37:25.567Z,7.5
2022-08-19T11:39:25.585Z,10.4
2022-08-19T11:41:25.582Z,8.9
2022-08-19T11:43:25.590Z,9.6
2022-08-19T11:45:25.605Z,7.8
2022-08-19T11:47:25.610Z,8.1
2022-08-19T11:49:25.623Z,10
2022-08-19T11:51:25.630Z,9
2022-08-19T11:53:25.639Z,8.9
2022-08-19T11:55:25.646Z,9.1
2022-08-19T11:57:25.649Z,8.4
2022-08-19T11:59:25.668Z,9.4
2022-08-19T12:01:25.679Z,9.8
2022-08-19T12:03:25.676Z,8.1
2022-08-19T12:05:25.683Z,8
2022-08-19T12:07:25.696Z,8
2022-08-19T12:09:25.721Z,8.2
2022-08-19T12:11:25.716Z,9.2
2022-08-19T12:13:25.728Z,8
2022-08-19T12:15:25.732Z,7.3
2022-08-19T12:17:25.745Z,8.2
2022-08-19T12:19:25.772Z,7.3
2022-08-19T12:21:25.756Z,7.1
2022-08-19T12:23:25.764Z,7.2
2022-08-19T12:25:25.759Z,8.6
2022-08-19T12:27:32.474Z,9.4
2022-08-19T12:29:25.786Z,7.3
2022-08-19T12:31:25.791Z,8.1
2022-08-19T12:33:25.789Z,6.8
2022-08-19T12:35:25.799Z,7
2022-08-19T12:37:25.810Z,7.4
2022-08-19T12:39:25.829Z,6.9
2022-08-19T12:41:25.822Z,7.1
2022-08-19T12:43:25.840Z,6.8
2022-08-19T12:45:25.851Z,7.1
2022-08-19T12:47:25.861Z,7.3
2022-08-19T12:49:51.962Z,7.7
2022-08-19T12:51:25.877Z,7.2
2022-08-19T12:53:25.897Z,6.5
2022-08-19T12:55:25.903Z,7.9
2022-08-19T12:57:32.374Z,6.5
2022-08-19T12:59:25.922Z,6.2
2022-08-19T13:01:25.961Z,7.1
2022-08-19T13:03:25.931Z,5.1
2022-08-19T13:05:25.943Z,7
2022-08-19T13:07:25.954Z,5.8
2022-08-19T13:09:25.980Z,7
2022-08-19T13:11:25.973Z,6.4
2022-08-19T13:13:25.984Z,6.7
2022-08-19T13:15:25.991Z,7.2
2022-08-19T13:17:26.004Z,7.5
2022-08-19T13:19:26.009Z,6.1
2022-08-19T13:21:26.002Z,7
2022-08-19T13:23:26.011Z,6.1
2022-08-19T13:25:26.020Z,7.6
2022-08-19T13:27:26.051Z,6.6
2022-08-19T13:29:26.085Z,6.1
2022-08-19T13:31:26.077Z,7.6
2022-08-19T13:33:26.064Z,6.4
2022-08-19T13:35:26.081Z,5.6
2022-08-19T13:37:26.102Z,5.2
2022-08-19T13:39:26.110Z,5.7
2022-08-19T13:41:26.118Z,6.8
2022-08-19T13:43:26.132Z,9.7
2022-08-19T13:45:26.155Z,6.7
2022-08-19T13:47:26.154Z,6.2
2022-08-19T13:49:26.164Z,7.8
2022-08-19T13:51:26.167Z,7.3
2022-08-19T13:53:26.167Z,7.7
2022-08-19T13:55:26.215Z,6.1
2022-08-19T13:57:26.181Z,6.6
2022-08-19T13:59:26.198Z,7.4
2022-08-19T14:01:26.197Z,6.2
2022-08-19T14:03:26.188Z,7.8
2022-08-19T14:05:26.201Z,7.1
2022-08-19T14:07:26.219Z,7.1
2022-08-19T14:09:26.210Z,7.7
2022-08-19T14:11:26.204Z,6.4
2022-08-19T14:13:26.211Z,8.6
2022-08-19T14:15:26.215Z,6.8
2022-08-19T14:17:26.219Z,7.1
2022-08-19T14:19:26.232Z,6.5
2022-08-19T14:21:26.227Z,9.4
2022-08-19T14:23:26.235Z,6.3
2022-08-19T14:25:26.256Z,7.9
2022-08-19T14:27:26.241Z,7.4
2022-08-19T14:29:26.259Z,7.2
2022-08-19T14:31:30.316Z,6.4
2022-08-19T14:33:28.336Z,6.3
2022-08-19T14:35:26.259Z,6.2
2022-08-19T14:37:26.266Z,6.3
2022-08-19T14:39:26.278Z,6.8
2022-08-19T14:41:26.272Z,6
2022-08-19T14:43:26.277Z,6
2022-08-19T14:45:26.278Z,7.4
2022-08-19T14:47:26.278Z,6.9
2022-08-19T14:49:34.679Z,6.7
2022-08-19T14:51:26.287Z,6.3
2022-08-19T14:53:26.293Z,7.4
2022-08-19T14:55:26.302Z,5.7
2022-08-19T14:57:26.304Z,10.2
2022-08-19T14:59:26.317Z,9.2
2022-08-19T15:01:26.335Z,7.5
2022-08-19T15:03:26.307Z,6.4
2022-08-19T15:05:26.312Z,10.3
2022-08-19T15:07:28.280Z,7.2
2022-08-19T15:09:26.327Z,6.2
2022-08-19T15:11:26.327Z,6.1
2022-08-19T15:13:26.330Z,6.6
2022-08-19T15:15:26.336Z,7.1
2022-08-19T15:17:28.042Z,7.4
2022-08-19T15:19:26.364Z,6.3
2022-08-19T15:21:26.841Z,6.1
2022-08-19T15:23:26.362Z,6.5
2022-08-19T15:25:26.368Z,7
2022-08-19T15:27:26.371Z,7.7
2022-08-19T15:29:26.389Z,6.6
2022-08-19T15:31:28.611Z,5.8
2022-08-19T15:33:26.387Z,6.2
2022-08-19T15:35:26.409Z,6
2022-08-19T15:37:26.405Z,5.4
2022-08-19T15:39:26.427Z,6.3
2022-08-19T15:41:26.412Z,6.2
2022-08-19T15:43:26.415Z,7.9
2022-08-19T15:45:28.412Z,7.1
2022-08-19T15:47:26.428Z,5.7
2022-08-19T15:49:26.437Z,5.9
2022-08-19T15:51:26.431Z,7.1
2022-08-19T15:53:26.472Z,6.9
2022-08-19T15:55:32.397Z,7
2022-08-19T15:57:26.443Z,5.9
2022-08-19T15:59:26.456Z,6.2
2022-08-19T16:01:27.165Z,6.6
2022-08-19T16:03:26.450Z,5.7
2022-08-19T16:05:26.451Z,5.8
2022-08-19T16:07:26.455Z,5.6
2022-08-19T16:09:27.415Z,5.3
2022-08-19T16:11:29.335Z,8.7
2022-08-19T16:13:26.459Z,5
2022-08-19T16:15:26.472Z,5.9
2022-08-19T16:17:26.482Z,6.8
2022-08-19T16:19:26.494Z,6.5
2022-08-19T16:21:26.487Z,5.4
2022-08-19T16:23:26.486Z,6.7
2022-08-19T16:25:26.481Z,6.1
2022-08-19T16:27:26.486Z,6.6
2022-08-19T16:29:33.485Z,5.6
2022-08-19T16:31:26.509Z,6.1
2022-08-19T16:33:26.499Z,6.1
2022-08-19T16:35:26.496Z,6.4
2022-08-19T16:37:26.501Z,5.1
2022-08-19T16:39:26.513Z,5.7
2022-08-19T16:41:26.524Z,6.2
2022-08-19T16:43:26.521Z,6.1
2022-08-19T16:45:26.525Z,6
2022-08-19T16:47:26.518Z,6.3
2022-08-19T16:49:52.587Z,6.9
2022-08-19T16:51:26.521Z,6.6
2022-08-19T16:53:26.542Z,6.6
2022-08-19T16:55:26.533Z,7
2022-08-19T16:57:26.541Z,5.4
2022-08-19T16:59:26.547Z,7.1
2022-08-19T17:01:26.588Z,5.9
2022-08-19T17:03:29.512Z,6.6
2022-08-19T17:05:26.559Z,5.3
2022-08-19T17:07:26.570Z,6.7
2022-08-19T17:09:26.563Z,7.3
2022-08-19T17:11:26.548Z,5.7
2022-08-19T17:13:26.565Z,6.4
2022-08-19T17:15:26.579Z,6.2
2022-08-19T17:17:29.081Z,7.2
2022-08-19T17:19:26.587Z,7.8
2022-08-19T17:21:26.568Z,6.1
2022-08-19T17:23:43.398Z,6.9
2022-08-19T17:25:26.586Z,6.9
2022-08-19T17:27:26.639Z,7.5
2022-08-19T17:29:26.594Z,6.4
2022-08-19T17:31:26.600Z,7.2
2022-08-19T17:33:26.611Z,7.2
2022-08-19T17:35:26.607Z,8.5
2022-08-19T17:37:26.609Z,7.2
2022-08-19T17:39:26.625Z,6.5
2022-08-19T17:41:26.959Z,7
2022-08-19T17:43:32.266Z,7.1
2022-08-19T17:45:26.621Z,7.6
2022-08-19T17:47:26.622Z,8.4
2022-08-19T17:49:26.639Z,7.9
2022-08-19T17:51:26.637Z,7.1
2022-08-19T17:53:26.643Z,7.6
2022-08-19T17:55:26.654Z,7.8
2022-08-19T17:57:26.648Z,9.3
2022-08-19T17:59:27.927Z,7.5
2022-08-19T18:01:26.711Z,8.6
2022-08-19T18:03:26.657Z,8.1
2022-08-19T18:05:26.662Z,7.7
2022-08-19T18:07:26.668Z,8
2022-08-19T18:09:26.698Z,8.3
2022-08-19T18:11:26.688Z,8.3
2022-08-19T18:13:26.682Z,8.1
2022-08-19T18:15:26.692Z,8.8
2022-08-19T18:17:26.718Z,9.3
2022-08-19T18:19:30.195Z,8.6
2022-08-19T18:21:26.703Z,8.9
2022-08-19T18:23:41.749Z,8.2
2022-08-19T18:25:26.720Z,8.7
2022-08-19T18:27:26.714Z,8.7
2022-08-19T18:29:26.720Z,10.3
2022-08-19T18:31:26.731Z,10.4
2022-08-19T18:33:26.739Z,12.3
2022-08-19T18:35:26.729Z,11
2022-08-19T18:37:26.764Z,11.3
2022-08-19T18:39:26.757Z,12.6
2022-08-19T18:41:26.752Z,13.6
2022-08-19T18:43:26.752Z,12
2022-08-19T18:45:26.757Z,14.2
2022-08-19T18:47:26.773Z,15.4
2022-08-19T18:49:26.776Z,16.3
2022-08-19T18:51:28.515Z,15.8
2022-08-19T18:53:26.803Z,17.4
2022-08-19T18:55:26.788Z,17.7
2022-08-19T18:57:26.793Z,17.8
2022-08-19T18:59:26.814Z,18.6
2022-08-19T19:01:26.911Z,18.7
2022-08-19T19:03:26.819Z,18.5
2022-08-19T19:05:26.820Z,17.2
2022-08-19T19:07:26.827Z,20
2022-08-19T19:09:26.838Z,20.3
2022-08-19T19:11:26.828Z,20.4
2022-08-19T19:13:26.831Z,20.1
2022-08-19T19:15:26.847Z,20.4
2022-08-19T19:17:26.848Z,20.1
2022-08-19T19:19:26.875Z,20.9
2022-08-19T19:21:26.859Z,22.7
2022-08-19T19:23:27.048Z,25.6
2022-08-19T19:25:26.880Z,22.9
2022-08-19T19:27:26.876Z,25.3
2022-08-19T19:29:26.903Z,22.8
2022-08-19T19:31:27.030Z,21.6
2022-08-19T19:33:26.903Z,22.9
2022-08-19T19:35:26.908Z,24.6
2022-08-19T19:37:26.916Z,22.5
2022-08-19T19:39:29.696Z,21.2
2022-08-19T19:41:26.934Z,24.9
2022-08-19T19:43:26.939Z,23.4
2022-08-19T19:45:26.948Z,22.2
2022-08-19T19:47:26.960Z,23.7
2022-08-19T19:49:26.978Z,21.8
2022-08-19T19:51:26.976Z,20.1
2022-08-19T19:53:26.983Z,19.4
2022-08-19T19:55:26.993Z,22.9
2022-08-19T19:57:27.023Z,20.7
2022-08-19T19:59:27.007Z,21.8
2022-08-19T20:01:27.032Z,21.6
2022-08-19T20:03:27.022Z,23.4
2022-08-19T20:05:27.027Z,23
2022-08-19T20:07:27.029Z,22.7
2022-08-19T20:09:39.210Z,24.1
2022-08-19T20:11:27.037Z,20.5
2022-08-19T20:13:27.045Z,21.2
2022-08-19T20:15:27.050Z,20.9
2022-08-19T20:17:27.063Z,19.8
2022-08-19T20:19:27.231Z,19.5
2022-08-19T20:21:27.076Z,22.5
2022-08-19T20:23:27.086Z,20.3
2022-08-19T20:25:27.099Z,21.2
2022-08-19T20:27:27.102Z,20.3
2022-08-19T20:29:37.946Z,20.8
2022-08-19T20:31:27.138Z,19
2022-08-19T20:33:27.123Z,20.3
2022-08-19T20:35:27.128Z,20.1
2022-08-19T20:37:27.137Z,23.3
2022-08-19T20:39:27.154Z,22.7
2022-08-19T20:41:27.154Z,22.3
2022-08-19T20:43:27.164Z,24.9
2022-08-19T20:45:30.967Z,23.3
2022-08-19T20:47:27.176Z,24.4
2022-08-19T20:49:27.750Z,22.9
2022-08-19T20:51:27.193Z,23.9
2022-08-19T20:53:27.195Z,23
2022-08-19T20:55:27.203Z,22.4
2022-08-19T20:57:27.208Z,23.1
2022-08-19T20:59:27.233Z,22.2
2022-08-19T21:01:27.256Z,24.6
2022-08-19T21:03:27.229Z,23.9
2022-08-19T21:05:30.340Z,23.9
2022-08-19T21:07:38.854Z,24
2022-08-19T21:09:27.264Z,23.1
2022-08-19T21:11:27.254Z,22.7
2022-08-19T21:13:27.267Z,22.9
2022-08-19T21:15:27.271Z,23.4
2022-08-19T21:17:27.278Z,23.8
2022-08-19T21:19:27.300Z,23
2022-08-19T21:21:27.293Z,23.5
2022-08-19T21:23:27.299Z,22.7
2022-08-19T21:25:27.304Z,23.8
2022-08-19T21:27:27.318Z,22.5
2022-08-19T21:29:27.332Z,23.4
2022-08-19T21:31:27.345Z,21.9
2022-08-19T21:33:27.339Z,24.5
2022-08-19T21:35:27.348Z,24.4
2022-08-19T21:37:27.356Z,26.4
2022-08-19T21:39:27.379Z,23.7
2022-08-19T21:41:27.371Z,22.3
2022-08-19T21:43:27.377Z,23.4
2022-08-19T21:45:27.383Z,23.3
2022-08-19T21:47:27.391Z,24.5
2022-08-19T21:49:27.429Z,22.8
2022-08-19T21:51:27.409Z,23.3
2022-08-19T21:53:31.724Z,22.7
2022-08-19T21:55:27.415Z,22.4
2022-08-19T21:57:27.436Z,21.9
2022-08-19T21:59:27.437Z,22.9
2022-08-19T22:01:27.468Z,23.4
2022-08-19T22:03:27.448Z,22.4
2022-08-19T22:05:27.455Z,22.2
2022-08-19T22:07:27.462Z,20
2022-08-19T22:09:27.476Z,21.1
2022-08-19T22:11:27.479Z,22.4
2022-08-19T22:13:27.488Z,20.9
2022-08-19T22:15:27.497Z,23.8
2022-08-19T22:17:27.525Z,25.3
2022-08-19T22:19:27.516Z,23.7
2022-08-19T22:21:40.024Z,22.6
2022-08-19T22:23:27.523Z,23.5
2022-08-19T22:25:30.147Z,24.9
2022-08-19T22:27:27.543Z,22.6
2022-08-19T22:29:33.960Z,23.8
2022-08-19T22:31:27.566Z,24.2
2022-08-19T22:33:27.565Z,25.5
2022-08-19T22:35:27.572Z,25.4
2022-08-19T22:37:27.574Z,24.6
2022-08-19T22:39:27.592Z,26.1
2022-08-19T22:41:27.590Z,25.1
2022-08-19T22:43:27.596Z,28.3
2022-08-19T22:45:27.614Z,30.1
2022-08-19T22:47:28.841Z,29.4
2022-08-19T22:49:27.623Z,29
2022-08-19T22:51:27.617Z,25.6
2022-08-19T22:53:27.626Z,26.7
2022-08-19T22:55:27.634Z,25
2022-08-19T22:57:27.641Z,25.8
2022-08-19T22:59:27.665Z,25
2022-08-19T23:01:30.124Z,24.8
2022-08-19T23:03:27.661Z,25.3
2022-08-19T23:05:27.665Z,24.3
2022-08-19T23:07:27.673Z,25.4
2022-08-19T23:09:30.501Z,24.2
2022-08-19T23:11:27.689Z,24.2
2022-08-19T23:13:27.693Z,24.9
2022-08-19T23:15:27.942Z,24.2
2022-08-19T23:17:27.706Z,25.2
2022-08-19T23:19:27.727Z,25.5
2022-08-19T23:21:27.727Z,24.2
2022-08-19T23:23:27.729Z,23.3
2022-08-19T23:25:27.739Z,25.4
2022-08-19T23:27:27.741Z,23.7
2022-08-19T23:29:27.756Z,25.2
2022-08-19T23:31:27.765Z,25.1
2022-08-19T23:33:39.772Z,25.2
2022-08-19T23:35:27.771Z,23.6
2022-08-19T23:37:27.772Z,24.7
2022-08-19T23:39:27.780Z,24.6
2022-08-19T23:41:27.777Z,25.8
2022-08-19T23:43:27.788Z,25.3
2022-08-19T23:45:27.795Z,27.3
2022-08-19T23:47:27.797Z,25.3
2022-08-19T23:49:27.812Z,25.6
2022-08-19T23:51:27.813Z,26.6
2022-08-19T23:53:27.817Z,24.9
2022-08-19T23:55:27.823Z,27.9
2022-08-19T23:57:27.828Z,24.6
2022-08-19T23:59:27.848Z,24.7
